Douds, Iowa
Current Conditions -  °F | °C
As of 9:35 PM on Saturday 22 Nov 2014 (Local Time) from KFFL Reporting Station
Broken Clouds Broken Clouds  
Wind Chill: 52°   Ceiling: 2000
Heat Index: 52°   Visibility: NA
Dew Point: 48°   Wind: 13mph
Humidity: 88%   Direction: 180°S
Pressure: 29.75"   Gusts: NA
Location:  40.84°N, 92.09°W
Report Text: KFFL 230335Z AUTO 18011KT BKN020 BKN060 11/09 A2975 RMK AO2
Loading
Personal Weather Stations






























Interactive Weather Map New forecast layout! Learn more

10-Day Weather Forecast

Advertisements
Track Severe Weather on mobile